sensor_id;sensor_type;location;lat;lon;timestamp;P1;durP1;ratioP1;P2;durP2;ratioP2
43710;SDS011;29309;42.682;23.372;2022-10-18T00:01:55;17.58;;;7.38;;
43710;SDS011;29309;42.682;23.372;2022-10-18T00:04:21;16.70;;;7.45;;
43710;SDS011;29309;42.682;23.372;2022-10-18T00:06:46;14.80;;;7.55;;
43710;SDS011;29309;42.682;23.372;2022-10-18T00:09:12;14.30;;;7.32;;
43710;SDS011;29309;42.682;23.372;2022-10-18T00:11:38;16.08;;;7.55;;
43710;SDS011;29309;42.682;23.372;2022-10-18T00:14:03;14.10;;;6.97;;
43710;SDS011;29309;42.682;23.372;2022-10-18T00:16:29;19.30;;;7.40;;
43710;SDS011;29309;42.682;23.372;2022-10-18T00:18:54;16.52;;;7.35;;
43710;SDS011;29309;42.682;23.372;2022-10-18T00:21:21;14.63;;;6.85;;
43710;SDS011;29309;42.682;23.372;2022-10-18T00:23:48;20.33;;;8.38;;
43710;SDS011;29309;42.682;23.372;2022-10-18T00:26:16;20.55;;;9.52;;
43710;SDS011;29309;42.682;23.372;2022-10-18T00:28:44;15.20;;;7.15;;
43710;SDS011;29309;42.682;23.372;2022-10-18T00:31:12;18.20;;;7.85;;
43710;SDS011;29309;42.682;23.372;2022-10-18T00:34:01;19.98;;;8.88;;
43710;SDS011;29309;42.682;23.372;2022-10-18T00:36:29;13.38;;;7.88;;
43710;SDS011;29309;42.682;23.372;2022-10-18T00:38:56;17.85;;;7.78;;
43710;SDS011;29309;42.682;23.372;2022-10-18T00:41:24;23.35;;;8.45;;
43710;SDS011;29309;42.682;23.372;2022-10-18T00:44:03;17.33;;;9.23;;
43710;SDS011;29309;42.682;23.372;2022-10-18T00:46:34;21.27;;;9.18;;
43710;SDS011;29309;42.682;23.372;2022-10-18T00:49:05;16.75;;;7.75;;
43710;SDS011;29309;42.682;23.372;2022-10-18T00:51:41;15.45;;;8.65;;
43710;SDS011;29309;42.682;23.372;2022-10-18T00:54:09;19.63;;;8.10;;
43710;SDS011;29309;42.682;23.372;2022-10-18T00:56:36;19.00;;;8.77;;
43710;SDS011;29309;42.682;23.372;2022-10-18T00:59:02;16.23;;;8.60;;
43710;SDS011;29309;42.682;23.372;2022-10-18T01:01:28;17.65;;;8.70;;
43710;SDS011;29309;42.682;23.372;2022-10-18T01:03:53;14.73;;;7.28;;
43710;SDS011;29309;42.682;23.372;2022-10-18T01:06:19;17.45;;;9.38;;
43710;SDS011;29309;42.682;23.372;2022-10-18T01:08:49;16.77;;;8.55;;
43710;SDS011;29309;42.682;23.372;2022-10-18T01:15:02;14.70;;;7.82;;
43710;SDS011;29309;42.682;23.372;2022-10-18T01:17:09;17.98;;;7.65;;
43710;SDS011;29309;42.682;23.372;2022-10-18T01:23:06;16.95;;;8.43;;
43710;SDS011;29309;42.682;23.372;2022-10-18T01:25:49;13.77;;;7.55;;
43710;SDS011;29309;42.682;23.372;2022-10-18T01:38:48;15.35;;;8.32;;
43710;SDS011;29309;42.682;23.372;2022-10-18T01:41:18;12.98;;;7.05;;
43710;SDS011;29309;42.682;23.372;2022-10-18T01:43:46;10.48;;;6.20;;
43710;SDS011;29309;42.682;23.372;2022-10-18T01:46:17;17.55;;;7.45;;
43710;SDS011;29309;42.682;23.372;2022-10-18T01:48:46;13.38;;;6.60;;
43710;SDS011;29309;42.682;23.372;2022-10-18T01:51:13;10.95;;;7.10;;
43710;SDS011;29309;42.682;23.372;2022-10-18T01:53:38;22.70;;;8.05;;
43710;SDS011;29309;42.682;23.372;2022-10-18T01:58:45;12.00;;;6.30;;
43710;SDS011;29309;42.682;23.372;2022-10-18T02:06:43;14.00;;;5.93;;
43710;SDS011;29309;42.682;23.372;2022-10-18T02:09:17;16.10;;;6.60;;
43710;SDS011;29309;42.682;23.372;2022-10-18T02:11:48;15.10;;;7.72;;
43710;SDS011;29309;42.682;23.372;2022-10-18T02:14:18;18.85;;;8.30;;
43710;SDS011;29309;42.682;23.372;2022-10-18T02:19:27;13.65;;;6.68;;
43710;SDS011;29309;42.682;23.372;2022-10-18T02:22:15;14.30;;;6.95;;
43710;SDS011;29309;42.682;23.372;2022-10-18T02:24:50;12.52;;;6.32;;
43710;SDS011;29309;42.682;23.372;2022-10-18T02:27:19;11.48;;;5.78;;
43710;SDS011;29309;42.682;23.372;2022-10-18T02:29:45;12.60;;;6.25;;
43710;SDS011;29309;42.682;23.372;2022-10-18T02:37:36;11.68;;;5.47;;
43710;SDS011;29309;42.682;23.372;2022-10-18T02:40:03;9.73;;;6.07;;
43710;SDS011;29309;42.682;23.372;2022-10-18T02:42:38;8.80;;;4.95;;
43710;SDS011;29309;42.682;23.372;2022-10-18T02:45:08;9.00;;;5.30;;
43710;SDS011;29309;42.682;23.372;2022-10-18T02:47:35;12.15;;;5.10;;
43710;SDS011;29309;42.682;23.372;2022-10-18T02:50:01;11.52;;;5.30;;
43710;SDS011;29309;42.682;23.372;2022-10-18T02:52:26;10.93;;;5.15;;
43710;SDS011;29309;42.682;23.372;2022-10-18T02:54:52;8.70;;;5.20;;
43710;SDS011;29309;42.682;23.372;2022-10-18T02:57:17;15.95;;;5.47;;
43710;SDS011;29309;42.682;23.372;2022-10-18T02:59:43;15.13;;;5.65;;
43710;SDS011;29309;42.682;23.372;2022-10-18T03:02:08;10.48;;;5.20;;
43710;SDS011;29309;42.682;23.372;2022-10-18T03:04:33;10.77;;;5.43;;
43710;SDS011;29309;42.682;23.372;2022-10-18T03:06:59;12.68;;;5.57;;
43710;SDS011;29309;42.682;23.372;2022-10-18T03:09:24;9.48;;;5.78;;
43710;SDS011;29309;42.682;23.372;2022-10-18T03:11:50;11.50;;;6.13;;
43710;SDS011;29309;42.682;23.372;2022-10-18T03:14:15;14.32;;;6.55;;
43710;SDS011;29309;42.682;23.372;2022-10-18T03:16:41;11.68;;;6.00;;
43710;SDS011;29309;42.682;23.372;2022-10-18T03:19:06;12.32;;;6.40;;
43710;SDS011;29309;42.682;23.372;2022-10-18T03:21:32;25.23;;;6.82;;
43710;SDS011;29309;42.682;23.372;2022-10-18T03:23:57;10.60;;;6.07;;
43710;SDS011;29309;42.682;23.372;2022-10-18T03:26:24;12.60;;;5.22;;
43710;SDS011;29309;42.682;23.372;2022-10-18T03:28:49;13.70;;;6.55;;
43710;SDS011;29309;42.682;23.372;2022-10-18T03:31:15;18.98;;;6.13;;
43710;SDS011;29309;42.682;23.372;2022-10-18T03:33:40;11.35;;;6.10;;
43710;SDS011;29309;42.682;23.372;2022-10-18T03:36:08;13.20;;;6.30;;
43710;SDS011;29309;42.682;23.372;2022-10-18T03:38:34;17.63;;;6.78;;
43710;SDS011;29309;42.682;23.372;2022-10-18T03:40:59;14.35;;;7.10;;
43710;SDS011;29309;42.682;23.372;2022-10-18T03:43:25;19.98;;;9.32;;
43710;SDS011;29309;42.682;23.372;2022-10-18T03:45:50;13.98;;;8.15;;
43710;SDS011;29309;42.682;23.372;2022-10-18T03:48:16;14.00;;;7.25;;
43710;SDS011;29309;42.682;23.372;2022-10-18T03:50:41;12.13;;;6.50;;
43710;SDS011;29309;42.682;23.372;2022-10-18T03:53:07;17.08;;;7.28;;
43710;SDS011;29309;42.682;23.372;2022-10-18T03:55:33;23.63;;;7.90;;
43710;SDS011;29309;42.682;23.372;2022-10-18T03:57:58;18.13;;;8.05;;
43710;SDS011;29309;42.682;23.372;2022-10-18T04:00:24;21.30;;;7.88;;
43710;SDS011;29309;42.682;23.372;2022-10-18T04:02:49;16.33;;;8.02;;
43710;SDS011;29309;42.682;23.372;2022-10-18T04:05:14;17.73;;;8.52;;
43710;SDS011;29309;42.682;23.372;2022-10-18T04:07:40;17.35;;;8.85;;
43710;SDS011;29309;42.682;23.372;2022-10-18T04:10:06;14.30;;;8.13;;
43710;SDS011;29309;42.682;23.372;2022-10-18T04:12:32;31.33;;;10.02;;
43710;SDS011;29309;42.682;23.372;2022-10-18T04:14:57;16.50;;;9.35;;
43710;SDS011;29309;42.682;23.372;2022-10-18T04:17:22;33.67;;;8.93;;
43710;SDS011;29309;42.682;23.372;2022-10-18T04:19:48;23.92;;;10.30;;
43710;SDS011;29309;42.682;23.372;2022-10-18T04:22:13;21.30;;;11.48;;
43710;SDS011;29309;42.682;23.372;2022-10-18T04:24:39;18.30;;;9.75;;
43710;SDS011;29309;42.682;23.372;2022-10-18T04:27:05;22.83;;;10.23;;
43710;SDS011;29309;42.682;23.372;2022-10-18T04:29:31;25.55;;;10.75;;
43710;SDS011;29309;42.682;23.372;2022-10-18T04:31:57;17.83;;;9.90;;
43710;SDS011;29309;42.682;23.372;2022-10-18T04:34:22;25.67;;;10.88;;
43710;SDS011;29309;42.682;23.372;2022-10-18T04:36:48;20.35;;;10.10;;
43710;SDS011;29309;42.682;23.372;2022-10-18T04:39:13;22.85;;;10.18;;
43710;SDS011;29309;42.682;23.372;2022-10-18T04:41:39;23.75;;;9.77;;
43710;SDS011;29309;42.682;23.372;2022-10-18T04:44:04;22.27;;;10.20;;
43710;SDS011;29309;42.682;23.372;2022-10-18T04:46:29;24.15;;;10.55;;
43710;SDS011;29309;42.682;23.372;2022-10-18T04:48:55;43.13;;;11.43;;
43710;SDS011;29309;42.682;23.372;2022-10-18T04:51:20;20.25;;;9.77;;
43710;SDS011;29309;42.682;23.372;2022-10-18T04:53:46;21.42;;;11.43;;
43710;SDS011;29309;42.682;23.372;2022-10-18T04:56:11;21.48;;;10.45;;
43710;SDS011;29309;42.682;23.372;2022-10-18T04:58:37;19.30;;;10.65;;
43710;SDS011;29309;42.682;23.372;2022-10-18T05:01:06;36.28;;;12.55;;
43710;SDS011;29309;42.682;23.372;2022-10-18T05:03:32;20.92;;;10.82;;
43710;SDS011;29309;42.682;23.372;2022-10-18T05:05:58;29.17;;;10.55;;
43710;SDS011;29309;42.682;23.372;2022-10-18T05:08:23;36.40;;;11.15;;
43710;SDS011;29309;42.682;23.372;2022-10-18T05:10:48;30.48;;;12.30;;
43710;SDS011;29309;42.682;23.372;2022-10-18T05:13:14;25.38;;;12.05;;
43710;SDS011;29309;42.682;23.372;2022-10-18T05:15:39;20.67;;;10.50;;
43710;SDS011;29309;42.682;23.372;2022-10-18T05:18:05;28.58;;;11.93;;
43710;SDS011;29309;42.682;23.372;2022-10-18T05:20:30;29.17;;;12.43;;
43710;SDS011;29309;42.682;23.372;2022-10-18T05:22:56;23.35;;;13.52;;
43710;SDS011;29309;42.682;23.372;2022-10-18T05:25:22;34.28;;;14.70;;
43710;SDS011;29309;42.682;23.372;2022-10-18T05:27:48;30.75;;;16.30;;
43710;SDS011;29309;42.682;23.372;2022-10-18T05:30:13;32.63;;;14.65;;
43710;SDS011;29309;42.682;23.372;2022-10-18T05:32:39;35.08;;;16.17;;
43710;SDS011;29309;42.682;23.372;2022-10-18T05:35:04;34.50;;;16.58;;
43710;SDS011;29309;42.682;23.372;2022-10-18T05:37:30;26.80;;;15.40;;
43710;SDS011;29309;42.682;23.372;2022-10-18T05:39:56;31.55;;;16.25;;
43710;SDS011;29309;42.682;23.372;2022-10-18T05:42:21;33.63;;;16.63;;
43710;SDS011;29309;42.682;23.372;2022-10-18T05:44:47;30.25;;;15.07;;
43710;SDS011;29309;42.682;23.372;2022-10-18T05:47:12;39.20;;;15.85;;
43710;SDS011;29309;42.682;23.372;2022-10-18T05:49:40;39.28;;;18.67;;
43710;SDS011;29309;42.682;23.372;2022-10-18T05:52:06;34.97;;;18.20;;
43710;SDS011;29309;42.682;23.372;2022-10-18T05:54:31;41.35;;;18.88;;
43710;SDS011;29309;42.682;23.372;2022-10-18T05:56:56;32.78;;;17.65;;
43710;SDS011;29309;42.682;23.372;2022-10-18T05:59:22;24.73;;;14.65;;
43710;SDS011;29309;42.682;23.372;2022-10-18T06:01:47;24.17;;;13.98;;
43710;SDS011;29309;42.682;23.372;2022-10-18T06:04:13;29.38;;;14.43;;
43710;SDS011;29309;42.682;23.372;2022-10-18T06:06:38;25.00;;;13.13;;
43710;SDS011;29309;42.682;23.372;2022-10-18T06:09:05;26.92;;;12.65;;
43710;SDS011;29309;42.682;23.372;2022-10-18T06:11:32;22.48;;;13.00;;
43710;SDS011;29309;42.682;23.372;2022-10-18T06:13:57;23.40;;;12.98;;
43710;SDS011;29309;42.682;23.372;2022-10-18T06:16:23;23.38;;;11.20;;
43710;SDS011;29309;42.682;23.372;2022-10-18T06:18:50;25.25;;;11.85;;
43710;SDS011;29309;42.682;23.372;2022-10-18T06:21:17;19.92;;;11.35;;
43710;SDS011;29309;42.682;23.372;2022-10-18T06:23:46;20.33;;;11.30;;
43710;SDS011;29309;42.682;23.372;2022-10-18T06:28:45;17.70;;;11.60;;
43710;SDS011;29309;42.682;23.372;2022-10-18T06:31:11;21.60;;;11.63;;
43710;SDS011;29309;42.682;23.372;2022-10-18T06:33:37;24.90;;;12.57;;
43710;SDS011;29309;42.682;23.372;2022-10-18T06:36:04;23.02;;;12.52;;
43710;SDS011;29309;42.682;23.372;2022-10-18T06:38:35;20.95;;;10.32;;
43710;SDS011;29309;42.682;23.372;2022-10-18T06:41:01;16.30;;;9.70;;
43710;SDS011;29309;42.682;23.372;2022-10-18T06:43:28;18.80;;;11.45;;
43710;SDS011;29309;42.682;23.372;2022-10-18T06:45:53;24.98;;;11.20;;
43710;SDS011;29309;42.682;23.372;2022-10-18T06:48:19;19.77;;;9.05;;
43710;SDS011;29309;42.682;23.372;2022-10-18T06:50:53;15.70;;;9.25;;
43710;SDS011;29309;42.682;23.372;2022-10-18T06:53:21;26.17;;;9.10;;
43710;SDS011;29309;42.682;23.372;2022-10-18T06:55:47;26.50;;;9.10;;
43710;SDS011;29309;42.682;23.372;2022-10-18T06:58:12;17.25;;;7.82;;
43710;SDS011;29309;42.682;23.372;2022-10-18T07:00:38;13.68;;;7.97;;
43710;SDS011;29309;42.682;23.372;2022-10-18T07:03:03;16.15;;;9.25;;
43710;SDS011;29309;42.682;23.372;2022-10-18T07:05:30;25.55;;;11.43;;
43710;SDS011;29309;42.682;23.372;2022-10-18T07:07:56;19.83;;;10.63;;
43710;SDS011;29309;42.682;23.372;2022-10-18T07:10:21;17.88;;;10.60;;
43710;SDS011;29309;42.682;23.372;2022-10-18T07:12:47;13.70;;;8.07;;
43710;SDS011;29309;42.682;23.372;2022-10-18T07:15:13;12.57;;;8.50;;
43710;SDS011;29309;42.682;23.372;2022-10-18T07:17:38;13.57;;;7.53;;
43710;SDS011;29309;42.682;23.372;2022-10-18T07:20:04;14.15;;;7.70;;
43710;SDS011;29309;42.682;23.372;2022-10-18T07:22:30;16.60;;;7.35;;
43710;SDS011;29309;42.682;23.372;2022-10-18T07:24:55;11.52;;;7.05;;
43710;SDS011;29309;42.682;23.372;2022-10-18T07:27:21;15.52;;;7.20;;
43710;SDS011;29309;42.682;23.372;2022-10-18T07:29:46;17.50;;;8.80;;
43710;SDS011;29309;42.682;23.372;2022-10-18T07:32:13;15.20;;;10.65;;
43710;SDS011;29309;42.682;23.372;2022-10-18T07:34:39;18.63;;;10.30;;
43710;SDS011;29309;42.682;23.372;2022-10-18T07:37:04;21.30;;;9.82;;
43710;SDS011;29309;42.682;23.372;2022-10-18T07:39:29;21.77;;;10.35;;
43710;SDS011;29309;42.682;23.372;2022-10-18T07:41:55;23.48;;;9.80;;
43710;SDS011;29309;42.682;23.372;2022-10-18T07:44:21;19.42;;;9.57;;
43710;SDS011;29309;42.682;23.372;2022-10-18T07:46:47;17.52;;;10.02;;
43710;SDS011;29309;42.682;23.372;2022-10-18T07:49:12;17.30;;;9.68;;
43710;SDS011;29309;42.682;23.372;2022-10-18T07:51:37;14.93;;;8.65;;
43710;SDS011;29309;42.682;23.372;2022-10-18T07:54:03;17.40;;;9.48;;
43710;SDS011;29309;42.682;23.372;2022-10-18T07:56:28;16.02;;;10.05;;
43710;SDS011;29309;42.682;23.372;2022-10-18T07:58:54;21.88;;;8.98;;
43710;SDS011;29309;42.682;23.372;2022-10-18T08:01:20;16.77;;;8.43;;
43710;SDS011;29309;42.682;23.372;2022-10-18T08:03:47;17.85;;;8.77;;
43710;SDS011;29309;42.682;23.372;2022-10-18T08:06:14;15.90;;;7.97;;
43710;SDS011;29309;42.682;23.372;2022-10-18T08:08:42;10.20;;;7.25;;
43710;SDS011;29309;42.682;23.372;2022-10-18T08:11:09;16.42;;;7.75;;
43710;SDS011;29309;42.682;23.372;2022-10-18T08:13:37;17.60;;;7.97;;
43710;SDS011;29309;42.682;23.372;2022-10-18T08:16:04;62.83;;;10.00;;
43710;SDS011;29309;42.682;23.372;2022-10-18T08:18:34;12.48;;;7.28;;
43710;SDS011;29309;42.682;23.372;2022-10-18T08:21:01;13.50;;;8.25;;
43710;SDS011;29309;42.682;23.372;2022-10-18T08:23:28;17.08;;;7.75;;
43710;SDS011;29309;42.682;23.372;2022-10-18T08:25:53;14.85;;;8.07;;
43710;SDS011;29309;42.682;23.372;2022-10-18T08:28:19;17.30;;;8.07;;
43710;SDS011;29309;42.682;23.372;2022-10-18T08:30:44;16.00;;;8.38;;
43710;SDS011;29309;42.682;23.372;2022-10-18T08:33:10;14.88;;;8.73;;
43710;SDS011;29309;42.682;23.372;2022-10-18T08:35:35;10.95;;;7.40;;
43710;SDS011;29309;42.682;23.372;2022-10-18T08:38:01;10.27;;;7.40;;
43710;SDS011;29309;42.682;23.372;2022-10-18T08:40:26;14.55;;;8.15;;
43710;SDS011;29309;42.682;23.372;2022-10-18T08:43:06;12.88;;;8.63;;
43710;SDS011;29309;42.682;23.372;2022-10-18T08:45:38;14.88;;;8.05;;
43710;SDS011;29309;42.682;23.372;2022-10-18T08:48:06;16.15;;;8.05;;
43710;SDS011;29309;42.682;23.372;2022-10-18T08:50:40;12.52;;;7.93;;
43710;SDS011;29309;42.682;23.372;2022-10-18T08:53:15;19.88;;;8.38;;
43710;SDS011;29309;42.682;23.372;2022-10-18T08:55:46;10.68;;;7.78;;
43710;SDS011;29309;42.682;23.372;2022-10-18T09:03:46;13.63;;;8.20;;
43710;SDS011;29309;42.682;23.372;2022-10-18T09:06:34;13.50;;;7.78;;
43710;SDS011;29309;42.682;23.372;2022-10-18T09:09:22;19.20;;;9.50;;
43710;SDS011;29309;42.682;23.372;2022-10-18T09:12:01;19.08;;;6.47;;
43710;SDS011;29309;42.682;23.372;2022-10-18T09:14:59;19.02;;;7.40;;
43710;SDS011;29309;42.682;23.372;2022-10-18T09:20:41;9.57;;;5.47;;
43710;SDS011;29309;42.682;23.372;2022-10-18T09:23:20;12.25;;;5.78;;
43710;SDS011;29309;42.682;23.372;2022-10-18T09:26:30;14.95;;;6.30;;
43710;SDS011;29309;42.682;23.372;2022-10-18T09:36:56;10.25;;;4.38;;
43710;SDS011;29309;42.682;23.372;2022-10-18T09:39:22;13.80;;;5.38;;
43710;SDS011;29309;42.682;23.372;2022-10-18T09:42:01;6.72;;;4.32;;
43710;SDS011;29309;42.682;23.372;2022-10-18T09:44:38;12.32;;;4.30;;
43710;SDS011;29309;42.682;23.372;2022-10-18T09:47:17;14.65;;;6.55;;
43710;SDS011;29309;42.682;23.372;2022-10-18T09:49:55;10.90;;;4.47;;
43710;SDS011;29309;42.682;23.372;2022-10-18T09:52:37;12.88;;;4.13;;
43710;SDS011;29309;42.682;23.372;2022-10-18T09:55:18;9.80;;;4.07;;
43710;SDS011;29309;42.682;23.372;2022-10-18T09:57:52;8.43;;;3.50;;
43710;SDS011;29309;42.682;23.372;2022-10-18T10:00:30;11.43;;;3.33;;
43710;SDS011;29309;42.682;23.372;2022-10-18T10:02:59;5.60;;;2.70;;
43710;SDS011;29309;42.682;23.372;2022-10-18T10:05:25;7.70;;;2.38;;
43710;SDS011;29309;42.682;23.372;2022-10-18T10:07:55;13.55;;;3.20;;
43710;SDS011;29309;42.682;23.372;2022-10-18T10:10:27;7.57;;;3.25;;
43710;SDS011;29309;42.682;23.372;2022-10-18T10:13:05;5.15;;;2.85;;
43710;SDS011;29309;42.682;23.372;2022-10-18T10:15:45;5.05;;;2.55;;
43710;SDS011;29309;42.682;23.372;2022-10-18T10:18:18;5.00;;;2.47;;
43710;SDS011;29309;42.682;23.372;2022-10-18T10:21:06;10.15;;;3.38;;
43710;SDS011;29309;42.682;23.372;2022-10-18T10:23:44;3.95;;;2.30;;
43710;SDS011;29309;42.682;23.372;2022-10-18T10:26:28;7.07;;;2.45;;
43710;SDS011;29309;42.682;23.372;2022-10-18T10:28:57;4.70;;;2.38;;
43710;SDS011;29309;42.682;23.372;2022-10-18T10:31:43;3.47;;;2.13;;
43710;SDS011;29309;42.682;23.372;2022-10-18T10:36:45;5.05;;;2.10;;
43710;SDS011;29309;42.682;23.372;2022-10-18T10:39:16;3.58;;;2.28;;
43710;SDS011;29309;42.682;23.372;2022-10-18T10:42:01;3.60;;;2.30;;
43710;SDS011;29309;42.682;23.372;2022-10-18T10:44:34;9.60;;;2.40;;
43710;SDS011;29309;42.682;23.372;2022-10-18T10:47:01;9.65;;;2.92;;
43710;SDS011;29309;42.682;23.372;2022-10-18T10:52:02;7.90;;;1.98;;
43710;SDS011;29309;42.682;23.372;2022-10-18T10:54:31;4.72;;;2.13;;
43710;SDS011;29309;42.682;23.372;2022-10-18T10:57:04;5.18;;;2.20;;
43710;SDS011;29309;42.682;23.372;2022-10-18T10:59:47;5.75;;;2.22;;
43710;SDS011;29309;42.682;23.372;2022-10-18T11:04:42;3.55;;;1.70;;
43710;SDS011;29309;42.682;23.372;2022-10-18T11:07:26;4.30;;;2.30;;
43710;SDS011;29309;42.682;23.372;2022-10-18T11:10:02;4.72;;;1.90;;
43710;SDS011;29309;42.682;23.372;2022-10-18T11:15:46;4.43;;;1.95;;
43710;SDS011;29309;42.682;23.372;2022-10-18T11:18:27;2.88;;;1.30;;
43710;SDS011;29309;42.682;23.372;2022-10-18T11:21:07;3.38;;;2.00;;
43710;SDS011;29309;42.682;23.372;2022-10-18T11:23:40;4.57;;;1.33;;
43710;SDS011;29309;42.682;23.372;2022-10-18T11:44:52;10.57;;;3.65;;
43710;SDS011;29309;42.682;23.372;2022-10-18T11:47:25;3.33;;;2.17;;
43710;SDS011;29309;42.682;23.372;2022-10-18T11:50:11;5.15;;;1.65;;
43710;SDS011;29309;42.682;23.372;2022-10-18T11:58:33;7.25;;;1.63;;
43710;SDS011;29309;42.682;23.372;2022-10-18T12:01:24;2.65;;;1.30;;
43710;SDS011;29309;42.682;23.372;2022-10-18T12:06:52;2.20;;;0.95;;
43710;SDS011;29309;42.682;23.372;2022-10-18T12:09:40;6.63;;;1.15;;
43710;SDS011;29309;42.682;23.372;2022-10-18T12:12:18;3.05;;;1.08;;
43710;SDS011;29309;42.682;23.372;2022-10-18T12:17:41;1.38;;;1.00;;
43710;SDS011;29309;42.682;23.372;2022-10-18T12:20:26;2.38;;;0.93;;
43710;SDS011;29309;42.682;23.372;2022-10-18T12:23:12;1.48;;;0.70;;
43710;SDS011;29309;42.682;23.372;2022-10-18T12:25:42;2.05;;;1.10;;
43710;SDS011;29309;42.682;23.372;2022-10-18T12:33:29;1.67;;;1.05;;
43710;SDS011;29309;42.682;23.372;2022-10-18T12:36:15;1.25;;;0.82;;
43710;SDS011;29309;42.682;23.372;2022-10-18T12:41:20;1.33;;;0.77;;
43710;SDS011;29309;42.682;23.372;2022-10-18T12:43:50;1.77;;;0.90;;
43710;SDS011;29309;42.682;23.372;2022-10-18T12:49:32;2.05;;;0.75;;
43710;SDS011;29309;42.682;23.372;2022-10-18T12:52:01;2.00;;;1.00;;
43710;SDS011;29309;42.682;23.372;2022-10-18T12:56:57;5.15;;;1.17;;
43710;SDS011;29309;42.682;23.372;2022-10-18T13:07:38;1.58;;;0.93;;
43710;SDS011;29309;42.682;23.372;2022-10-18T13:09:41;1.20;;;0.73;;
43710;SDS011;29309;42.682;23.372;2022-10-18T13:18:38;1.45;;;0.98;;
43710;SDS011;29309;42.682;23.372;2022-10-18T13:36:42;1.60;;;0.77;;
43710;SDS011;29309;42.682;23.372;2022-10-18T13:39:14;2.13;;;0.80;;
43710;SDS011;29309;42.682;23.372;2022-10-18T13:44:21;3.22;;;0.88;;
43710;SDS011;29309;42.682;23.372;2022-10-18T13:49:28;8.13;;;0.95;;
43710;SDS011;29309;42.682;23.372;2022-10-18T14:08:28;2.47;;;0.90;;
43710;SDS011;29309;42.682;23.372;2022-10-18T14:11:04;1.05;;;0.77;;
43710;SDS011;29309;42.682;23.372;2022-10-18T14:16:54;2.03;;;1.10;;
43710;SDS011;29309;42.682;23.372;2022-10-18T14:24:56;2.38;;;0.82;;
43710;SDS011;29309;42.682;23.372;2022-10-18T14:27:24;2.35;;;1.10;;
43710;SDS011;29309;42.682;23.372;2022-10-18T14:32:47;2.47;;;1.00;;
43710;SDS011;29309;42.682;23.372;2022-10-18T14:35:25;1.35;;;0.90;;
43710;SDS011;29309;42.682;23.372;2022-10-18T14:37:54;5.32;;;1.17;;
43710;SDS011;29309;42.682;23.372;2022-10-18T14:40:36;3.60;;;1.77;;
43710;SDS011;29309;42.682;23.372;2022-10-18T14:43:14;6.50;;;1.52;;
43710;SDS011;29309;42.682;23.372;2022-10-18T14:45:44;3.65;;;1.48;;
43710;SDS011;29309;42.682;23.372;2022-10-18T14:50:41;7.05;;;1.55;;
43710;SDS011;29309;42.682;23.372;2022-10-18T14:53:12;2.00;;;1.08;;
43710;SDS011;29309;42.682;23.372;2022-10-18T14:55:41;6.57;;;2.25;;
43710;SDS011;29309;42.682;23.372;2022-10-18T14:58:12;6.68;;;1.52;;
43710;SDS011;29309;42.682;23.372;2022-10-18T15:00:39;4.82;;;2.10;;
43710;SDS011;29309;42.682;23.372;2022-10-18T15:03:05;3.45;;;1.45;;
43710;SDS011;29309;42.682;23.372;2022-10-18T15:05:36;5.38;;;1.60;;
43710;SDS011;29309;42.682;23.372;2022-10-18T15:08:19;3.17;;;1.33;;
43710;SDS011;29309;42.682;23.372;2022-10-18T15:10:46;3.92;;;1.40;;
43710;SDS011;29309;42.682;23.372;2022-10-18T15:13:12;4.80;;;1.67;;
43710;SDS011;29309;42.682;23.372;2022-10-18T15:15:38;3.75;;;1.65;;
43710;SDS011;29309;42.682;23.372;2022-10-18T15:18:05;3.92;;;1.98;;
43710;SDS011;29309;42.682;23.372;2022-10-18T15:20:33;9.30;;;2.50;;
43710;SDS011;29309;42.682;23.372;2022-10-18T15:25:47;5.88;;;2.78;;
43710;SDS011;29309;42.682;23.372;2022-10-18T15:28:23;9.48;;;3.08;;
43710;SDS011;29309;42.682;23.372;2022-10-18T15:30:54;8.82;;;2.65;;
43710;SDS011;29309;42.682;23.372;2022-10-18T15:33:22;5.68;;;2.70;;
43710;SDS011;29309;42.682;23.372;2022-10-18T15:35:51;13.85;;;3.47;;
43710;SDS011;29309;42.682;23.372;2022-10-18T15:40:56;9.30;;;3.42;;
43710;SDS011;29309;42.682;23.372;2022-10-18T15:45:51;9.48;;;3.20;;
43710;SDS011;29309;42.682;23.372;2022-10-18T15:48:20;12.23;;;4.20;;
43710;SDS011;29309;42.682;23.372;2022-10-18T15:50:55;12.85;;;6.15;;
43710;SDS011;29309;42.682;23.372;2022-10-18T15:58:50;16.45;;;5.53;;
43710;SDS011;29309;42.682;23.372;2022-10-18T16:01:28;14.80;;;5.32;;
43710;SDS011;29309;42.682;23.372;2022-10-18T16:03:58;12.02;;;4.88;;
43710;SDS011;29309;42.682;23.372;2022-10-18T16:06:26;13.88;;;6.13;;
43710;SDS011;29309;42.682;23.372;2022-10-18T16:08:52;9.27;;;3.92;;
43710;SDS011;29309;42.682;23.372;2022-10-18T16:11:21;11.15;;;4.78;;
43710;SDS011;29309;42.682;23.372;2022-10-18T16:13:48;22.38;;;4.95;;
43710;SDS011;29309;42.682;23.372;2022-10-18T16:16:25;14.50;;;5.00;;
43710;SDS011;29309;42.682;23.372;2022-10-18T16:18:53;17.13;;;6.85;;
43710;SDS011;29309;42.682;23.372;2022-10-18T16:21:20;17.27;;;5.50;;
43710;SDS011;29309;42.682;23.372;2022-10-18T16:23:48;14.05;;;4.57;;
43710;SDS011;29309;42.682;23.372;2022-10-18T16:26:14;18.30;;;4.57;;
43710;SDS011;29309;42.682;23.372;2022-10-18T16:28:42;29.88;;;9.63;;
43710;SDS011;29309;42.682;23.372;2022-10-18T16:31:09;12.55;;;4.45;;
43710;SDS011;29309;42.682;23.372;2022-10-18T16:33:39;13.93;;;4.13;;
43710;SDS011;29309;42.682;23.372;2022-10-18T16:36:10;13.68;;;3.42;;
43710;SDS011;29309;42.682;23.372;2022-10-18T16:38:44;4.28;;;2.47;;
43710;SDS011;29309;42.682;23.372;2022-10-18T16:41:13;8.02;;;2.85;;
43710;SDS011;29309;42.682;23.372;2022-10-18T16:43:40;7.20;;;3.05;;
43710;SDS011;29309;42.682;23.372;2022-10-18T16:46:14;16.58;;;4.50;;
43710;SDS011;29309;42.682;23.372;2022-10-18T16:48:42;21.23;;;6.00;;
43710;SDS011;29309;42.682;23.372;2022-10-18T16:51:09;12.07;;;4.25;;
43710;SDS011;29309;42.682;23.372;2022-10-18T16:53:35;20.17;;;4.00;;
43710;SDS011;29309;42.682;23.372;2022-10-18T16:56:01;17.05;;;4.32;;
43710;SDS011;29309;42.682;23.372;2022-10-18T16:58:28;14.35;;;5.07;;
43710;SDS011;29309;42.682;23.372;2022-10-18T17:00:55;20.70;;;3.78;;
43710;SDS011;29309;42.682;23.372;2022-10-18T17:03:22;10.60;;;5.45;;
43710;SDS011;29309;42.682;23.372;2022-10-18T17:05:48;10.32;;;4.43;;
43710;SDS011;29309;42.682;23.372;2022-10-18T17:08:19;15.82;;;4.18;;
43710;SDS011;29309;42.682;23.372;2022-10-18T17:10:48;11.07;;;4.03;;
43710;SDS011;29309;42.682;23.372;2022-10-18T17:13:19;11.82;;;4.35;;
43710;SDS011;29309;42.682;23.372;2022-10-18T17:15:45;19.17;;;5.70;;
43710;SDS011;29309;42.682;23.372;2022-10-18T17:18:12;15.38;;;5.85;;
43710;SDS011;29309;42.682;23.372;2022-10-18T17:20:46;21.23;;;7.18;;
43710;SDS011;29309;42.682;23.372;2022-10-18T17:23:11;15.88;;;5.35;;
43710;SDS011;29309;42.682;23.372;2022-10-18T17:25:38;10.02;;;6.28;;
43710;SDS011;29309;42.682;23.372;2022-10-18T17:28:09;11.15;;;5.25;;
43710;SDS011;29309;42.682;23.372;2022-10-18T17:30:36;15.00;;;4.60;;
43710;SDS011;29309;42.682;23.372;2022-10-18T17:33:03;12.70;;;5.20;;
43710;SDS011;29309;42.682;23.372;2022-10-18T17:35:28;22.17;;;6.50;;
43710;SDS011;29309;42.682;23.372;2022-10-18T17:37:54;23.42;;;8.05;;
43710;SDS011;29309;42.682;23.372;2022-10-18T17:40:19;15.60;;;5.57;;
43710;SDS011;29309;42.682;23.372;2022-10-18T17:42:48;14.15;;;4.75;;